createdAt,value
2018-05-24T00:01:06.345Z,15.40
2018-05-24T00:03:32.629Z,15.43
2018-05-24T00:05:58.905Z,15.70
2018-05-24T00:08:25.183Z,13.80
2018-05-24T00:10:51.449Z,14.83
2018-05-24T00:13:48.305Z,17.03
2018-05-24T00:16:14.561Z,16.40
2018-05-24T00:18:40.825Z,17.43
2018-05-24T00:21:07.085Z,15.03
2018-05-24T00:23:33.341Z,16.07
2018-05-24T00:26:00.365Z,16.33
2018-05-24T00:28:26.629Z,16.17
2018-05-24T00:30:53.658Z,17.80
2018-05-24T00:33:19.944Z,15.93
2018-05-24T00:35:46.221Z,17.30
2018-05-24T00:38:12.494Z,15.80
2018-05-24T00:40:38.755Z,16.63
2018-05-24T00:43:05.055Z,14.83
2018-05-24T00:45:32.089Z,20.07
2018-05-24T00:47:58.375Z,16.63
2018-05-24T00:50:24.637Z,18.87
2018-05-24T00:52:50.886Z,15.83
2018-05-24T00:55:35.669Z,18.27
2018-05-24T00:58:01.929Z,17.70
2018-05-24T01:00:28.203Z,18.20
2018-05-24T01:02:54.475Z,17.80
2018-05-24T01:05:21.545Z,18.97
2018-05-24T01:07:47.820Z,17.73
2018-05-24T01:10:14.092Z,18.40
2018-05-24T01:12:41.103Z,18.37
2018-05-24T01:15:07.431Z,15.10
2018-05-24T01:17:33.705Z,18.70
2018-05-24T01:20:00.002Z,17.17
2018-05-24T01:22:26.258Z,18.53
2018-05-24T01:24:52.514Z,17.20
2018-05-24T01:27:18.785Z,18.37
2018-05-24T01:29:45.112Z,18.67
2018-05-24T01:32:12.097Z,18.77
2018-05-24T01:34:38.392Z,19.77
2018-05-24T01:37:24.075Z,18.37
2018-05-24T01:39:51.092Z,21.53
2018-05-24T01:42:17.385Z,18.70
2018-05-24T01:44:43.634Z,19.73
2018-05-24T01:47:09.992Z,19.27
2018-05-24T01:49:36.300Z,19.20
2018-05-24T01:52:03.333Z,18.50
2018-05-24T01:54:29.646Z,19.10
2018-05-24T01:56:55.935Z,18.47
2018-05-24T01:59:22.240Z,16.83
2018-05-24T02:01:48.512Z,18.17
2018-05-24T02:04:14.789Z,18.20
2018-05-24T02:06:42.195Z,18.60
2018-05-24T02:09:09.310Z,17.37
2018-05-24T02:11:36.325Z,17.47
2018-05-24T02:14:02.611Z,18.73
2018-05-24T02:16:28.925Z,17.37
2018-05-24T02:18:55.913Z,17.47
2018-05-24T02:21:22.162Z,19.83
2018-05-24T02:23:48.436Z,17.27
2018-05-24T02:26:14.684Z,18.77
2018-05-24T02:28:40.979Z,17.53
2018-05-24T02:31:07.273Z,16.70
2018-05-24T02:33:34.289Z,18.27
2018-05-24T02:36:00.701Z,17.23
2018-05-24T02:38:27.554Z,17.27
2018-05-24T02:40:53.869Z,16.87
2018-05-24T02:43:20.149Z,17.27
2018-05-24T02:45:46.385Z,18.23
2018-05-24T02:48:12.647Z,17.90
2018-05-24T02:50:38.897Z,16.90
2018-05-24T02:53:05.965Z,21.70
2018-05-24T02:55:32.221Z,17.17
2018-05-24T02:57:58.529Z,15.90
2018-05-24T03:00:25.583Z,18.17
2018-05-24T03:02:51.846Z,13.67
2018-05-24T03:05:18.085Z,15.77
2018-05-24T03:07:44.337Z,13.93
2018-05-24T03:10:10.590Z,15.13
2018-05-24T03:12:37.619Z,14.23
2018-05-24T03:15:03.909Z,12.33
2018-05-24T03:17:30.971Z,13.53
2018-05-24T03:19:57.243Z,14.50
2018-05-24T03:22:23.541Z,11.23
2018-05-24T03:24:49.843Z,12.57
2018-05-24T03:27:16.144Z,12.53
2018-05-24T03:29:42.456Z,14.40
2018-05-24T03:32:08.712Z,14.63
2018-05-24T03:34:34.992Z,11.67
2018-05-24T03:37:01.297Z,12.70
2018-05-24T03:39:27.541Z,11.33
2018-05-24T03:41:53.853Z,13.80
2018-05-24T03:44:20.113Z,12.27
2018-05-24T03:46:46.420Z,11.20
2018-05-24T03:49:12.746Z,11.00
2018-05-24T03:51:39.035Z,10.97
2018-05-24T03:54:05.300Z,11.27
2018-05-24T03:56:32.334Z,11.20
2018-05-24T03:59:15.733Z,10.50
2018-05-24T04:04:57.793Z,13.97
2018-05-24T04:07:24.058Z,10.63
2018-05-24T04:09:50.354Z,11.90
2018-05-24T04:12:17.401Z,12.93
2018-05-24T04:14:44.433Z,10.87
2018-05-24T04:17:10.741Z,10.43
2018-05-24T04:19:37.089Z,13.23
2018-05-24T04:22:03.416Z,11.90
2018-05-24T04:24:29.715Z,11.70
2018-05-24T04:26:56.114Z,12.73
2018-05-24T04:29:22.376Z,9.97
2018-05-24T04:31:49.457Z,9.20
2018-05-24T04:34:15.721Z,10.30
2018-05-24T04:36:42.030Z,11.83
2018-05-24T04:39:08.314Z,11.57
2018-05-24T04:41:35.401Z,11.63
2018-05-24T04:44:01.700Z,11.07
2018-05-24T04:46:28.014Z,9.80
2018-05-24T04:48:54.329Z,10.43
2018-05-24T04:51:20.605Z,11.63
2018-05-24T04:53:46.847Z,10.17
2018-05-24T04:56:13.613Z,10.20
2018-05-24T04:58:41.178Z,10.93
2018-05-24T05:01:08.267Z,11.17
2018-05-24T05:03:34.565Z,10.13
2018-05-24T05:06:01.593Z,9.03
2018-05-24T05:08:27.897Z,9.40
2018-05-24T05:10:54.392Z,13.33
2018-05-24T05:13:21.511Z,10.90
2018-05-24T05:15:47.726Z,9.67
2018-05-24T05:18:13.977Z,9.63
2018-05-24T05:20:40.277Z,8.53
2018-05-24T05:23:06.807Z,10.07
2018-05-24T05:25:33.038Z,11.73
2018-05-24T05:28:00.209Z,10.00
2018-05-24T05:30:26.478Z,10.57
2018-05-24T05:32:52.776Z,8.63
2018-05-24T05:35:19.065Z,10.73
2018-05-24T05:37:45.390Z,8.57
2018-05-24T05:40:11.692Z,9.40
2018-05-24T05:42:38.002Z,9.80
2018-05-24T05:45:05.050Z,10.20
2018-05-24T05:47:31.370Z,9.40
2018-05-24T05:49:57.669Z,9.47
2018-05-24T05:52:24.005Z,8.33
2018-05-24T05:54:50.953Z,8.77
2018-05-24T05:57:17.298Z,9.80
2018-05-24T05:59:43.598Z,9.30
2018-05-24T06:02:13.542Z,8.77
2018-05-24T06:04:39.994Z,9.40
2018-05-24T06:07:06.334Z,9.70
2018-05-24T06:09:32.670Z,10.87
2018-05-24T06:11:58.942Z,10.10
2018-05-24T06:14:26.006Z,9.80
2018-05-24T06:16:52.393Z,9.83
2018-05-24T06:19:18.669Z,8.83
2018-05-24T06:21:44.974Z,9.83
2018-05-24T06:24:11.524Z,9.27
2018-05-24T06:26:37.786Z,9.23
2018-05-24T06:29:04.181Z,9.03
2018-05-24T06:31:30.524Z,9.37
2018-05-24T06:33:56.829Z,10.20
2018-05-24T06:36:23.858Z,9.37
2018-05-24T06:38:50.212Z,9.90
2018-05-24T06:41:17.221Z,10.63
2018-05-24T06:43:43.569Z,7.43
2018-05-24T06:46:09.870Z,8.87
2018-05-24T06:48:36.133Z,9.90
2018-05-24T06:51:02.526Z,10.10
2018-05-24T06:53:28.893Z,10.23
2018-05-24T06:55:55.185Z,10.20
2018-05-24T06:58:22.240Z,11.57
2018-05-24T07:00:49.309Z,11.27
2018-05-24T07:03:15.610Z,10.52
2018-05-24T07:05:41.877Z,11.43
2018-05-24T07:08:08.180Z,10.00
2018-05-24T07:10:34.471Z,11.27
2018-05-24T07:13:00.731Z,11.20
2018-05-24T07:15:27.023Z,10.90
2018-05-24T07:17:53.278Z,12.47
2018-05-24T07:20:19.546Z,10.40
2018-05-24T07:22:45.832Z,13.13
2018-05-24T07:25:12.135Z,10.03
2018-05-24T07:27:38.454Z,11.53
2018-05-24T07:30:04.757Z,11.30
2018-05-24T07:32:31.084Z,11.20
2018-05-24T07:34:57.381Z,11.87
2018-05-24T07:37:23.704Z,11.67
2018-05-24T07:39:50.119Z,11.60
2018-05-24T07:42:16.297Z,12.33
2018-05-24T07:44:43.377Z,14.30
2018-05-24T07:47:09.653Z,13.40
2018-05-24T07:49:35.955Z,12.53
2018-05-24T07:52:02.427Z,11.57
2018-05-24T07:54:28.657Z,11.33
2018-05-24T07:56:54.997Z,11.63
2018-05-24T07:59:21.273Z,10.93
2018-05-24T08:01:48.373Z,12.77
2018-05-24T08:04:14.702Z,11.10
2018-05-24T08:06:40.965Z,11.93
2018-05-24T08:09:07.253Z,10.50
2018-05-24T08:11:33.529Z,10.70
2018-05-24T08:13:59.854Z,9.83
2018-05-24T08:16:26.141Z,9.27
2018-05-24T08:18:53.189Z,9.93
2018-05-24T08:21:19.444Z,9.10
2018-05-24T08:23:45.746Z,11.40
2018-05-24T08:26:12.112Z,9.87
2018-05-24T08:28:38.389Z,10.30
2018-05-24T08:31:04.665Z,8.77
2018-05-24T08:33:30.933Z,10.33
2018-05-24T08:35:57.965Z,9.20
2018-05-24T08:38:24.986Z,8.87
2018-05-24T08:40:51.332Z,8.53
2018-05-24T08:43:17.712Z,9.17
2018-05-24T08:45:44.074Z,9.37
2018-05-24T08:48:10.402Z,12.47
2018-05-24T08:50:36.711Z,10.87
2018-05-24T08:53:03.002Z,9.43
2018-05-24T08:55:29.353Z,12.67
2018-05-24T08:57:56.394Z,11.70
2018-05-24T09:00:22.801Z,10.23
2018-05-24T09:02:49.118Z,11.77
2018-05-24T09:05:16.137Z,11.10
2018-05-24T09:07:42.458Z,11.33
2018-05-24T09:10:08.728Z,11.40
2018-05-24T09:12:35.010Z,12.53
2018-05-24T09:15:01.306Z,11.83
2018-05-24T09:17:28.300Z,10.57
2018-05-24T09:19:54.578Z,11.63
2018-05-24T09:22:20.893Z,10.77
2018-05-24T09:24:47.209Z,12.57
2018-05-24T09:27:13.514Z,11.03
2018-05-24T09:29:40.517Z,12.33
2018-05-24T09:32:06.797Z,12.67
2018-05-24T09:34:33.808Z,11.03
2018-05-24T09:37:00.101Z,14.23
2018-05-24T09:39:26.406Z,12.63
2018-05-24T09:41:52.753Z,15.80
2018-05-24T09:44:19.808Z,13.10
2018-05-24T09:46:46.846Z,14.50
2018-05-24T09:49:13.171Z,13.40
2018-05-24T09:51:39.463Z,13.63
2018-05-24T09:54:05.746Z,14.50
2018-05-24T09:56:32.019Z,14.27
2018-05-24T09:58:59.032Z,14.27
2018-05-24T10:01:25.310Z,13.33
2018-05-24T10:03:51.559Z,14.17
2018-05-24T10:06:17.842Z,13.03
2018-05-24T10:08:44.112Z,11.53
2018-05-24T10:11:10.379Z,11.37
2018-05-24T10:13:36.643Z,10.20
2018-05-24T10:16:02.981Z,9.73
2018-05-24T10:18:29.264Z,10.33
2018-05-24T10:20:55.561Z,9.30
2018-05-24T10:23:21.822Z,9.23
2018-05-24T10:25:48.853Z,8.10
2018-05-24T10:28:15.133Z,9.03
2018-05-24T10:30:41.404Z,10.37
2018-05-24T10:33:07.714Z,8.93
2018-05-24T10:35:34.026Z,11.70
2018-05-24T10:38:01.034Z,9.00
2018-05-24T10:40:27.349Z,9.70
2018-05-24T10:42:53.657Z,10.43
2018-05-24T10:45:19.961Z,11.17
2018-05-24T10:47:46.221Z,9.37
2018-05-24T10:50:13.289Z,9.50
2018-05-24T10:52:39.584Z,10.37
2018-05-24T10:55:05.898Z,8.43
2018-05-24T10:57:32.209Z,8.40
2018-05-24T10:59:58.501Z,9.00
2018-05-24T11:02:25.602Z,8.00
2018-05-24T11:04:52.729Z,9.33
2018-05-24T11:07:19.068Z,8.50
2018-05-24T11:09:46.083Z,12.10
2018-05-24T11:12:12.338Z,7.27
2018-05-24T11:14:39.418Z,7.70
2018-05-24T11:17:05.711Z,8.23
2018-05-24T11:19:31.961Z,6.57
2018-05-24T11:21:59.007Z,9.47
2018-05-24T11:24:25.361Z,7.57
2018-05-24T11:26:52.377Z,7.83
2018-05-24T11:29:18.672Z,7.47
2018-05-24T11:31:45.014Z,7.07
2018-05-24T11:34:11.314Z,7.80
2018-05-24T11:36:38.381Z,7.30
2018-05-24T11:39:06.373Z,7.60
2018-05-24T11:41:32.709Z,7.63
2018-05-24T11:43:58.963Z,7.43
2018-05-24T11:46:25.482Z,7.93
2018-05-24T11:48:51.811Z,7.60
2018-05-24T11:51:18.133Z,7.77
2018-05-24T11:53:45.126Z,8.47
2018-05-24T11:56:12.642Z,8.53
2018-05-24T11:58:38.954Z,7.07
2018-05-24T12:01:05.239Z,8.07
2018-05-24T12:03:31.634Z,8.03
2018-05-24T12:05:57.944Z,6.83
2018-05-24T12:08:24.287Z,7.13
2018-05-24T12:10:50.606Z,7.00
2018-05-24T12:13:16.913Z,7.00
2018-05-24T12:15:43.897Z,7.37
2018-05-24T12:18:10.213Z,6.90
2018-05-24T12:20:36.497Z,7.43
2018-05-24T12:23:02.837Z,7.93
2018-05-24T12:25:29.137Z,7.37
2018-05-24T12:27:55.407Z,7.73
2018-05-24T12:30:21.713Z,7.70
2018-05-24T12:32:47.998Z,7.43
2018-05-24T12:35:14.347Z,7.17
2018-05-24T12:37:43.422Z,8.13
2018-05-24T12:40:09.735Z,7.53
2018-05-24T12:42:36.042Z,7.53
2018-05-24T12:45:02.313Z,8.03
2018-05-24T12:47:29.465Z,8.43
2018-05-24T12:49:56.226Z,8.53
2018-05-24T12:52:22.734Z,7.97
2018-05-24T12:54:54.257Z,7.97
2018-05-24T12:57:20.622Z,8.37
2018-05-24T12:59:46.885Z,8.50
2018-05-24T13:02:13.160Z,8.03
2018-05-24T13:04:39.458Z,8.20
2018-05-24T13:07:12.811Z,6.93
2018-05-24T13:09:39.090Z,7.07
2018-05-24T13:12:05.384Z,8.00
2018-05-24T13:14:31.898Z,6.77
2018-05-24T13:16:59.040Z,6.50
2018-05-24T13:19:25.443Z,6.27
2018-05-24T13:21:52.213Z,6.83
2018-05-24T13:24:19.332Z,6.00
2018-05-24T13:26:45.595Z,6.73
2018-05-24T13:29:11.899Z,5.67
2018-05-24T13:31:38.214Z,5.67
2018-05-24T13:34:05.303Z,5.30
2018-05-24T13:36:31.533Z,6.33
2018-05-24T13:38:57.822Z,4.93
2018-05-24T13:41:24.133Z,5.20
2018-05-24T13:43:50.404Z,6.10
2018-05-24T13:46:17.447Z,5.50
2018-05-24T13:48:43.721Z,5.20
2018-05-24T13:51:09.974Z,4.80
2018-05-24T13:53:36.233Z,5.13
2018-05-24T13:56:02.553Z,9.93
2018-05-24T13:58:28.832Z,5.90
2018-05-24T14:00:55.097Z,4.23
2018-05-24T14:03:21.384Z,3.80
2018-05-24T14:05:47.694Z,3.00
2018-05-24T14:08:14.024Z,3.10
2018-05-24T14:10:40.345Z,3.20
2018-05-24T14:13:06.642Z,5.03
2018-05-24T14:15:32.912Z,3.30
2018-05-24T14:17:59.216Z,2.60
2018-05-24T14:20:25.541Z,2.47
2018-05-24T14:22:51.852Z,2.60
2018-05-24T14:25:18.175Z,2.57
2018-05-24T14:27:44.410Z,2.80
2018-05-24T14:30:10.787Z,3.40
2018-05-24T14:32:37.091Z,2.90
2018-05-24T14:35:03.391Z,2.77
2018-05-24T14:37:30.475Z,2.60
2018-05-24T14:39:56.765Z,2.60
2018-05-24T14:42:23.106Z,3.43
2018-05-24T14:44:50.161Z,2.67
2018-05-24T14:47:17.166Z,3.40
2018-05-24T14:49:43.574Z,3.70
2018-05-24T14:52:09.905Z,3.10
2018-05-24T14:54:36.974Z,2.60
2018-05-24T14:57:03.300Z,2.70
2018-05-24T14:59:30.343Z,3.67
2018-05-24T15:02:00.203Z,2.83
2018-05-24T15:04:27.252Z,3.90
2018-05-24T15:06:53.537Z,2.87
2018-05-24T15:09:20.550Z,7.23
2018-05-24T15:11:46.807Z,2.90
2018-05-24T15:14:14.558Z,2.83
2018-05-24T15:16:40.838Z,2.60
2018-05-24T15:19:07.874Z,3.27
2018-05-24T15:21:34.218Z,3.10
2018-05-24T15:24:00.452Z,3.30
2018-05-24T15:26:26.685Z,4.27
2018-05-24T15:28:53.009Z,3.23
2018-05-24T15:31:19.281Z,3.80
2018-05-24T15:33:45.593Z,3.10
2018-05-24T15:36:11.870Z,3.00
2018-05-24T15:38:38.133Z,3.53
2018-05-24T15:41:04.464Z,4.13
2018-05-24T15:43:30.773Z,3.83
2018-05-24T15:45:57.057Z,5.63
2018-05-24T15:48:23.422Z,3.70
2018-05-24T15:50:50.425Z,3.97
2018-05-24T15:53:16.667Z,3.67
2018-05-24T15:55:42.980Z,3.60
2018-05-24T15:58:09.999Z,4.50
2018-05-24T16:00:37.043Z,4.00
2018-05-24T16:03:03.343Z,3.87
2018-05-24T16:05:30.483Z,4.10
2018-05-24T16:07:57.746Z,5.37
2018-05-24T16:10:24.090Z,4.83
2018-05-24T16:12:50.402Z,5.17
2018-05-24T16:15:16.714Z,4.83
2018-05-24T16:17:43.822Z,5.40
2018-05-24T16:20:10.165Z,6.87
2018-05-24T16:22:36.458Z,4.83
2018-05-24T16:25:02.785Z,4.43
2018-05-24T16:27:29.856Z,4.73
2018-05-24T16:29:56.161Z,4.87
2018-05-24T16:32:23.190Z,5.70
2018-05-24T16:34:51.002Z,4.97
2018-05-24T16:37:18.058Z,6.77
2018-05-24T16:39:44.363Z,4.60
2018-05-24T16:42:10.705Z,5.07
2018-05-24T16:44:37.012Z,5.47
2018-05-24T16:47:03.361Z,5.50
2018-05-24T16:49:29.663Z,5.03
2018-05-24T16:51:55.959Z,7.30
2018-05-24T16:54:23.120Z,5.53
2018-05-24T16:56:49.362Z,6.27
2018-05-24T16:59:16.399Z,5.40
2018-05-24T17:01:43.488Z,6.13
2018-05-24T17:04:09.841Z,6.30
2018-05-24T17:06:36.081Z,5.80
2018-05-24T17:09:02.414Z,8.37
2018-05-24T17:11:28.690Z,6.67
2018-05-24T17:13:55.039Z,7.50
2018-05-24T17:16:22.076Z,8.03
2018-05-24T17:18:49.154Z,7.50
2018-05-24T17:21:15.368Z,8.67
2018-05-24T17:23:41.654Z,8.20
2018-05-24T17:26:07.914Z,8.10
2018-05-24T17:28:34.186Z,9.53
2018-05-24T17:31:01.229Z,11.83
2018-05-24T17:33:27.539Z,10.93
2018-05-24T17:35:53.817Z,10.77
2018-05-24T17:38:20.911Z,11.13
2018-05-24T17:40:47.215Z,12.87
2018-05-24T17:43:14.274Z,12.20
2018-05-24T17:45:41.305Z,11.47
2018-05-24T17:48:08.402Z,13.07
2018-05-24T17:50:34.715Z,13.87
2018-05-24T17:53:01.736Z,12.23
2018-05-24T17:55:28.037Z,12.50
2018-05-24T17:57:54.340Z,13.23
2018-05-24T18:00:21.357Z,14.03
2018-05-24T18:02:47.630Z,13.33
2018-05-24T18:05:14.662Z,15.00
2018-05-24T18:07:40.963Z,14.57
2018-05-24T18:10:07.279Z,14.93
2018-05-24T18:12:33.538Z,15.63
2018-05-24T18:14:59.839Z,14.33
2018-05-24T18:17:26.215Z,15.33
2018-05-24T18:19:52.595Z,14.80
2018-05-24T18:22:19.575Z,12.40
2018-05-24T18:24:45.896Z,14.43
2018-05-24T18:27:12.271Z,14.70
2018-05-24T18:29:38.566Z,14.10
2018-05-24T18:32:07.946Z,14.30
2018-05-24T18:34:36.057Z,14.60
2018-05-24T18:37:02.423Z,14.90
2018-05-24T18:39:28.684Z,12.90
2018-05-24T18:41:56.471Z,13.10
2018-05-24T18:44:22.801Z,14.67
2018-05-24T18:46:54.743Z,13.33
2018-05-24T18:49:21.745Z,12.87
2018-05-24T18:51:48.785Z,13.30
2018-05-24T18:54:16.973Z,13.23
2018-05-24T18:56:43.289Z,12.40
2018-05-24T18:59:12.173Z,11.83
2018-05-24T19:01:44.437Z,12.57
2018-05-24T19:04:11.632Z,85.67
2018-05-24T19:06:38.658Z,15.50
2018-05-24T19:09:06.972Z,12.13
2018-05-24T19:11:33.525Z,11.83
2018-05-24T19:13:59.849Z,10.57
2018-05-24T19:16:26.866Z,11.83
2018-05-24T19:18:54.030Z,11.03
2018-05-24T19:21:20.346Z,11.93
2018-05-24T19:23:46.651Z,11.17
2018-05-24T19:26:12.923Z,10.80
2018-05-24T19:28:39.226Z,11.73
2018-05-24T19:31:05.528Z,10.83
2018-05-24T19:33:31.891Z,12.80
2018-05-24T19:35:58.226Z,11.43
2018-05-24T19:38:24.637Z,11.00
2018-05-24T19:40:51.692Z,9.97
2018-05-24T19:43:18.748Z,11.43
2018-05-24T19:45:45.858Z,12.10
2018-05-24T19:48:12.182Z,13.03
2018-05-24T19:50:38.475Z,12.80
2018-05-24T19:53:05.528Z,13.00
2018-05-24T19:55:31.785Z,13.73
2018-05-24T19:57:58.066Z,13.07
2018-05-24T20:00:24.371Z,12.43
2018-05-24T20:02:50.738Z,10.97
2018-05-24T20:05:18.308Z,11.30
2018-05-24T20:07:45.872Z,11.00
2018-05-24T20:10:12.725Z,13.13
2018-05-24T20:12:39.572Z,13.30
2018-05-24T20:15:09.178Z,11.90
2018-05-24T20:17:35.930Z,14.07
2018-05-24T20:20:02.719Z,12.83
2018-05-24T20:22:29.525Z,11.80
2018-05-24T20:24:56.367Z,14.23
2018-05-24T20:27:23.118Z,14.73
2018-05-24T20:29:50.689Z,13.50
2018-05-24T20:32:17.534Z,13.20
2018-05-24T20:34:44.271Z,15.40
2018-05-24T20:37:13.779Z,15.03
2018-05-24T20:39:40.532Z,14.77
2018-05-24T20:42:07.014Z,14.93
2018-05-24T20:44:34.171Z,13.90
2018-05-24T20:47:01.453Z,14.03
2018-05-24T20:49:27.869Z,16.07
2018-05-24T20:51:54.210Z,15.37
2018-05-24T20:54:20.564Z,15.47
2018-05-24T20:56:46.892Z,16.73
2018-05-24T20:59:13.243Z,17.00
2018-05-24T21:01:39.576Z,16.27
2018-05-24T21:04:05.898Z,17.37
2018-05-24T21:06:32.245Z,15.90
2018-05-24T21:08:58.597Z,17.07
2018-05-24T21:11:24.927Z,17.67
2018-05-24T21:13:51.323Z,17.40
2018-05-24T21:16:17.593Z,17.37
2018-05-24T21:18:44.033Z,18.40
2018-05-24T21:21:10.354Z,18.97
2018-05-24T21:23:36.681Z,18.47
2018-05-24T21:26:03.759Z,17.37
2018-05-24T21:28:30.553Z,17.40
2018-05-24T21:30:57.101Z,16.73
2018-05-24T21:33:24.161Z,16.77
2018-05-24T21:35:50.714Z,17.97
2018-05-24T21:38:23.332Z,18.67
2018-05-24T21:40:50.007Z,17.43
2018-05-24T21:43:16.315Z,17.07
2018-05-24T21:45:42.656Z,18.20
2018-05-24T21:48:08.947Z,20.20
2018-05-24T21:50:36.002Z,19.10
2018-05-24T21:53:03.073Z,19.40
2018-05-24T21:55:29.385Z,17.87
2018-05-24T21:57:56.454Z,19.97
2018-05-24T22:00:26.828Z,18.70
2018-05-24T22:02:53.150Z,19.30
2018-05-24T22:05:19.474Z,19.50
2018-05-24T22:07:45.777Z,20.23
2018-05-24T22:10:12.095Z,22.17
2018-05-24T22:12:38.397Z,22.00
2018-05-24T22:15:04.765Z,21.97
2018-05-24T22:17:31.074Z,22.87
2018-05-24T22:19:57.383Z,21.47
2018-05-24T22:22:23.697Z,23.17
2018-05-24T22:24:50.763Z,18.07
2018-05-24T22:27:17.090Z,24.03
2018-05-24T22:29:44.141Z,21.80
2018-05-24T22:32:11.235Z,24.83
2018-05-24T22:34:37.544Z,25.40
2018-05-24T22:37:04.609Z,22.93
2018-05-24T22:39:30.924Z,20.23
2018-05-24T22:41:57.996Z,23.43
2018-05-24T22:44:25.015Z,22.53
2018-05-24T22:46:51.309Z,24.40
2018-05-24T22:49:17.721Z,24.53
2018-05-24T22:51:44.750Z,24.47
2018-05-24T22:54:12.473Z,23.37
2018-05-24T22:56:38.793Z,24.50
2018-05-24T22:59:05.155Z,23.53
2018-05-24T23:01:31.465Z,25.67
2018-05-24T23:03:57.737Z,22.57
2018-05-24T23:06:24.021Z,24.70
2018-05-24T23:08:50.285Z,26.57
2018-05-24T23:11:16.539Z,24.83
2018-05-24T23:13:42.866Z,26.73
2018-05-24T23:16:09.186Z,27.73
2018-05-24T23:18:35.478Z,28.07
2018-05-24T23:21:01.777Z,27.77
2018-05-24T23:23:28.103Z,26.23
2018-05-24T23:25:54.410Z,29.60
2018-05-24T23:28:21.482Z,29.87
2018-05-24T23:30:47.774Z,28.63
2018-05-24T23:33:14.027Z,30.77
2018-05-24T23:35:41.078Z,30.00
2018-05-24T23:38:08.084Z,31.23
2018-05-24T23:40:34.344Z,31.63
2018-05-24T23:43:00.664Z,30.70
2018-05-24T23:45:26.976Z,27.27
2018-05-24T23:47:53.263Z,29.37
2018-05-24T23:50:19.543Z,31.93
2018-05-24T23:52:45.833Z,29.60
2018-05-24T23:55:12.106Z,30.63
2018-05-24T23:57:38.391Z,33.63
